Time;durP1;ratioP1;P1;durP2;ratioP2;P2;SDS_P1;SDS_P2;PMS_P1;PMS_P2;Temp;Humidity;BMP_temperature;BMP_pressure;BME280_temperature;BME280_humidity;BME280_pressure;Samples;Min_cycle;Max_cycle;Signal;HPM_P1;HPM_P2
2022/04/22 00:00:22;;;;;;;14.43;6.88;;;13.20;96.20;;;;;;5033389;28;20049;-75
2022/04/22 00:02:48;;;;;;;18.83;7.30;;;13.10;96.30;;;;;;5033171;28;20076;-75
2022/04/22 00:05:13;;;;;;;17.27;7.15;;;13.10;96.30;;;;;;5033053;28;20049;-75
2022/04/22 00:07:39;;;;;;;13.15;6.90;;;13.10;96.30;;;;;;5033960;28;20037;-75
2022/04/22 00:10:06;;;;;;;16.50;6.93;;;13.10;96.40;;;;;;5033245;28;20095;-75
2022/04/22 00:12:31;;;;;;;20.40;7.15;;;13.10;96.50;;;;;;5016822;28;20048;-75
2022/04/22 00:14:57;;;;;;;14.95;7.53;;;13.20;96.40;;;;;;5033237;28;20046;-75
2022/04/22 00:17:23;;;;;;;14.93;7.20;;;13.20;96.40;;;;;;5032816;28;20559;-75
2022/04/22 00:19:48;;;;;;;13.15;7.68;;;13.10;96.40;;;;;;5032724;28;20049;-75
2022/04/22 00:22:14;;;;;;;12.32;6.55;;;13.00;96.50;;;;;;5033062;28;20136;-75
2022/04/22 00:24:40;;;;;;;19.92;7.13;;;12.90;96.70;;;;;;5016197;28;20041;-75
2022/04/22 00:27:05;;;;;;;11.43;5.93;;;12.90;96.80;;;;;;5032987;28;20139;-75
2022/04/22 00:29:31;;;;;;;12.68;6.80;;;12.90;96.90;;;;;;5033261;28;20107;-75
2022/04/22 00:31:56;;;;;;;17.70;6.80;;;12.90;96.90;;;;;;5032311;28;20083;-75
2022/04/22 00:34:22;;;;;;;16.23;7.22;;;13.00;96.70;;;;;;5032867;28;20056;-75
2022/04/22 00:36:48;;;;;;;16.05;7.20;;;13.10;96.70;;;;;;5016437;28;20159;-75
2022/04/22 00:39:14;;;;;;;13.73;6.53;;;13.00;96.70;;;;;;5032884;28;20123;-75
2022/04/22 00:41:39;;;;;;;16.40;6.97;;;13.10;96.80;;;;;;5032698;28;20053;-75
2022/04/22 00:44:05;;;;;;;17.23;6.88;;;13.00;96.70;;;;;;5032239;28;20132;-76
2022/04/22 00:46:31;;;;;;;15.00;6.90;;;13.00;96.80;;;;;;5032650;28;20073;-75
2022/04/22 00:48:56;;;;;;;17.08;7.60;;;13.00;96.70;;;;;;5032594;28;20085;-76
2022/04/22 00:51:22;;;;;;;13.27;6.72;;;13.00;96.70;;;;;;5016010;28;20050;-76
2022/04/22 00:53:50;;;;;;;17.65;7.57;;;12.90;96.70;;;;;;5016560;28;20080;-75
2022/04/22 00:56:16;;;;;;;15.10;7.22;;;12.90;96.70;;;;;;5032636;28;20557;-75
2022/04/22 00:58:47;;;;;;;15.63;6.95;;;12.80;96.70;;;;;;5032871;28;20045;-75
2022/04/22 01:01:13;;;;;;;13.00;6.82;;;12.80;96.70;;;;;;5032750;28;20139;-75
2022/04/22 01:09:46;;;;;;;19.77;8.32;;;12.70;96.70;;;;;;5032354;28;20091;-75
2022/04/22 01:11:59;;;;;;;11.75;6.18;;;12.80;96.70;;;;;;5031906;28;20049;-75
2022/04/22 01:14:24;;;;;;;16.95;7.68;;;12.70;96.80;;;;;;5032485;28;20050;-76
2022/04/22 01:16:51;;;;;;;20.73;6.57;;;12.80;96.70;;;;;;5032142;28;20046;-75
2022/04/22 01:19:17;;;;;;;14.98;7.00;;;12.80;96.70;;;;;;5032279;28;20045;-75
2022/04/22 01:21:42;;;;;;;11.90;6.50;;;12.90;96.50;;;;;;5031760;28;20052;-75
2022/04/22 01:24:08;;;;;;;17.80;7.72;;;12.90;96.50;;;;;;5032120;28;20045;-75
2022/04/22 01:26:34;;;;;;;13.60;6.68;;;12.80;96.40;;;;;;5032324;28;20072;-76
2022/04/22 01:29:01;;;;;;;15.00;7.47;;;12.80;96.50;;;;;;5032295;28;20038;-75
2022/04/22 01:31:27;;;;;;;19.23;6.85;;;12.80;96.30;;;;;;5032374;28;20041;-75
2022/04/22 01:33:52;;;;;;;16.63;6.63;;;12.70;96.40;;;;;;5032276;28;20400;-75
2022/04/22 01:36:20;;;;;;;16.00;6.65;;;12.80;96.40;;;;;;5032298;28;20092;-75
2022/04/22 01:38:45;;;;;;;14.18;5.85;;;12.80;96.30;;;;;;5032199;28;20132;-75
2022/04/22 01:41:11;;;;;;;12.77;6.40;;;12.80;96.30;;;;;;5032179;28;20140;-76
2022/04/22 01:43:37;;;;;;;14.13;6.30;;;12.80;96.30;;;;;;5032004;28;20045;-75
2022/04/22 01:46:04;;;;;;;15.60;6.40;;;12.70;96.30;;;;;;5035294;28;20085;-76
2022/04/22 01:48:30;;;;;;;11.68;6.35;;;12.80;96.30;;;;;;5035898;28;20053;-75
2022/04/22 01:50:56;;;;;;;14.82;6.60;;;12.80;96.30;;;;;;5035482;28;20532;-75
2022/04/22 01:53:22;;;;;;;17.60;5.97;;;12.70;96.10;;;;;;5035846;28;20045;-76
2022/04/22 01:55:48;;;;;;;12.15;6.10;;;12.70;96.10;;;;;;5035758;28;20507;-76
2022/04/22 01:58:14;;;;;;;16.77;5.60;;;12.70;96.10;;;;;;5035748;28;20041;-76
2022/04/22 02:00:40;;;;;;;11.85;5.68;;;12.60;96.00;;;;;;5035800;28;20057;-76
2022/04/22 02:03:05;;;;;;;13.57;5.95;;;12.60;96.10;;;;;;5035502;28;20392;-75
2022/04/22 02:05:33;;;;;;;9.43;5.45;;;12.70;96.10;;;;;;5035561;28;20061;-75
2022/04/22 02:07:59;;;;;;;16.27;6.40;;;12.80;96.10;;;;;;5035663;28;20056;-76
2022/04/22 02:10:25;;;;;;;13.68;5.85;;;12.80;96.20;;;;;;5035398;28;20045;-75
2022/04/22 02:12:50;;;;;;;13.57;6.40;;;12.80;96.30;;;;;;5035586;28;20103;-75
2022/04/22 02:15:18;;;;;;;13.20;6.03;;;12.70;96.30;;;;;;5035463;28;20545;-76
2022/04/22 02:17:44;;;;;;;13.73;7.00;;;12.70;96.30;;;;;;5034842;28;20057;-75
2022/04/22 02:20:11;;;;;;;9.45;6.05;;;12.70;96.20;;;;;;5034935;28;20107;-75
2022/04/22 02:22:37;;;;;;;12.07;5.88;;;12.50;96.30;;;;;;5035282;28;20057;-75
2022/04/22 02:25:03;;;;;;;15.93;6.47;;;12.50;96.30;;;;;;5034843;28;20107;-76
2022/04/22 02:30:13;;;;;;;15.15;6.13;;;12.30;96.20;;;;;;5035226;28;20447;-75
2022/04/22 02:32:39;;;;;;;10.27;5.35;;;12.30;96.00;;;;;;5035354;28;20042;-76
2022/04/22 02:35:05;;;;;;;11.25;5.80;;;11.90;96.10;;;;;;5035057;28;20100;-75
2022/04/22 02:37:30;;;;;;;13.05;6.00;;;12.00;96.20;;;;;;5034938;28;20123;-76
2022/04/22 02:39:56;;;;;;;12.07;5.28;;;12.00;96.00;;;;;;5035107;28;20057;-75
2022/04/22 02:47:51;;;;;;;13.05;5.28;;;11.90;95.90;;;;;;5020786;28;20103;-77
2022/04/22 02:50:16;;;;;;;12.63;4.95;;;11.90;95.80;;;;;;5034377;28;20037;-76
2022/04/22 02:52:42;;;;;;;10.73;4.72;;;11.80;95.80;;;;;;5034799;28;20052;-76
2022/04/22 02:55:08;;;;;;;11.50;5.07;;;11.60;95.90;;;;;;5017870;28;20116;-76
2022/04/22 02:57:33;;;;;;;11.25;5.40;;;11.60;96.00;;;;;;5034810;28;20401;-75
2022/04/22 02:59:59;;;;;;;9.40;4.63;;;11.60;95.90;;;;;;5034493;28;20125;-75
2022/04/22 03:02:25;;;;;;;20.20;5.47;;;11.50;96.10;;;;;;5034478;28;20095;-76
2022/04/22 03:04:50;;;;;;;15.38;5.10;;;11.50;96.00;;;;;;5034152;28;20500;-75
2022/04/22 03:07:16;;;;;;;13.00;5.55;;;11.40;96.20;;;;;;5034438;28;20053;-76
2022/04/22 03:09:42;;;;;;;12.95;5.50;;;11.40;96.10;;;;;;5034163;28;20163;-75
2022/04/22 03:12:08;;;;;;;12.00;4.88;;;11.40;96.10;;;;;;5034322;28;20045;-76
2022/04/22 03:14:34;;;;;;;11.07;5.13;;;11.20;96.40;;;;;;5017648;28;20045;-75
2022/04/22 03:16:59;;;;;;;12.43;4.80;;;11.40;96.40;;;;;;5017335;28;20053;-76
2022/04/22 03:19:25;;;;;;;8.82;4.68;;;11.40;96.30;;;;;;5034239;28;20515;-75
2022/04/22 03:21:51;;;;;;;10.20;5.40;;;11.20;96.30;;;;;;5033782;28;20053;-75
2022/04/22 03:24:16;;;;;;;10.57;5.18;;;11.20;96.30;;;;;;5017208;28;20466;-75
2022/04/22 03:26:42;;;;;;;13.35;5.05;;;10.90;96.50;;;;;;5034027;28;20045;-75
2022/04/22 03:29:07;;;;;;;12.88;5.57;;;11.00;96.60;;;;;;5034153;28;20038;-75
2022/04/22 03:31:33;;;;;;;10.80;5.22;;;11.10;96.50;;;;;;5033888;28;20052;-75
2022/04/22 03:33:59;;;;;;;11.00;5.20;;;11.00;96.50;;;;;;5034182;28;20303;-75
2022/04/22 03:36:24;;;;;;;10.15;4.70;;;10.90;96.50;;;;;;5033937;28;20100;-76
2022/04/22 03:38:50;;;;;;;10.73;4.40;;;11.00;96.60;;;;;;5033965;28;20042;-75
2022/04/22 03:41:16;;;;;;;9.32;5.07;;;11.20;96.50;;;;;;5033690;28;20100;-75
2022/04/22 03:43:41;;;;;;;11.10;5.10;;;11.20;96.40;;;;;;5033486;28;20124;-75
2022/04/22 03:46:07;;;;;;;12.77;5.13;;;11.10;96.30;;;;;;5033645;28;20124;-75
2022/04/22 03:48:33;;;;;;;9.38;4.25;;;11.00;96.20;;;;;;5033395;28;20387;-75
2022/04/22 03:50:58;;;;;;;11.45;4.32;;;10.80;96.40;;;;;;5033428;28;20049;-75
2022/04/22 03:53:24;;;;;;;11.48;4.55;;;10.60;96.50;;;;;;5033475;28;20140;-75
2022/04/22 03:55:50;;;;;;;10.65;5.20;;;10.80;96.60;;;;;;5033511;28;20136;-75
2022/04/22 03:58:17;;;;;;;9.55;5.13;;;10.80;96.50;;;;;;5017142;28;20045;-75
2022/04/22 04:00:50;;;;;;;8.55;5.00;;;10.90;96.50;;;;;;5033447;28;20057;-75
2022/04/22 04:03:18;;;;;;;8.23;4.38;;;10.90;96.50;;;;;;5033247;28;20509;-75
2022/04/22 04:05:49;;;;;;;10.65;4.68;;;10.90;96.50;;;;;;5033360;28;20132;-75
2022/04/22 04:08:16;;;;;;;8.25;4.78;;;11.00;96.40;;;;;;5032892;28;20049;-75
2022/04/22 04:16:10;;;;;;;15.20;5.22;;;10.70;96.50;;;;;;5032991;28;20068;-76
2022/04/22 04:18:37;;;;;;;10.68;5.55;;;10.70;96.50;;;;;;5033068;28;20411;-75
2022/04/22 04:23:50;;;;;;;8.80;4.50;;;10.80;96.50;;;;;;5032871;28;20115;-76
2022/04/22 04:26:16;;;;;;;10.32;4.30;;;10.70;96.50;;;;;;5032985;28;20491;-75
2022/04/22 04:28:44;;;;;;;11.30;4.93;;;10.80;96.50;;;;;;5032998;28;20045;-75
2022/04/22 04:31:13;;;;;;;8.07;4.63;;;10.90;96.30;;;;;;5016721;28;20041;-75
2022/04/22 04:33:39;;;;;;;9.07;4.43;;;11.00;96.40;;;;;;5033137;28;20447;-75
2022/04/22 04:36:06;;;;;;;9.27;4.45;;;10.90;96.30;;;;;;5016545;28;20053;-75
2022/04/22 04:38:32;;;;;;;11.02;4.85;;;10.90;96.20;;;;;;5032520;28;20052;-75
2022/04/22 04:40:59;;;;;;;8.25;4.20;;;10.70;96.40;;;;;;5032879;28;20571;-75
2022/04/22 04:43:25;;;;;;;7.47;4.20;;;10.70;96.40;;;;;;5032663;28;20127;-75
2022/04/22 04:45:50;;;;;;;7.13;4.57;;;10.60;96.40;;;;;;5032672;28;20124;-75
2022/04/22 04:48:19;;;;;;;8.25;4.40;;;10.60;96.40;;;;;;5032726;28;20507;-75
2022/04/22 04:50:46;;;;;;;7.50;3.55;;;10.60;96.50;;;;;;5032380;28;20056;-76
2022/04/22 04:53:14;;;;;;;9.93;4.93;;;10.60;96.60;;;;;;5032625;28;20061;-75
2022/04/22 04:55:41;;;;;;;13.70;4.30;;;10.60;96.40;;;;;;5000049;28;20053;-75
2022/04/22 04:58:06;;;;;;;8.43;4.07;;;10.70;96.40;;;;;;5032752;28;20049;-76
2022/04/22 05:00:33;;;;;;;10.75;4.03;;;10.80;96.40;;;;;;5032531;28;20141;-75
2022/04/22 05:02:59;;;;;;;8.77;3.85;;;10.80;96.50;;;;;;5032459;28;20049;-75
2022/04/22 05:05:25;;;;;;;9.32;4.03;;;10.80;96.40;;;;;;5032419;28;20049;-75
2022/04/22 05:07:59;;;;;;;8.98;4.50;;;10.70;96.30;;;;;;5032734;28;20060;-75
2022/04/22 05:10:27;;;;;;;8.10;4.15;;;10.80;96.30;;;;;;5032412;28;20056;-75
2022/04/22 05:12:54;;;;;;;8.45;3.92;;;10.90;96.40;;;;;;5032727;28;20051;-75
2022/04/22 05:15:23;;;;;;;9.55;3.78;;;10.90;96.30;;;;;;5048453;28;20050;-75
2022/04/22 05:17:50;;;;;;;11.45;4.10;;;10.80;96.40;;;;;;5032174;28;20050;-75
2022/04/22 05:20:17;;;;;;;7.65;3.25;;;10.80;96.40;;;;;;5019583;28;20068;-75
2022/04/22 05:22:44;;;;;;;8.00;3.83;;;10.90;96.40;;;;;;5036244;28;20056;-75
2022/04/22 05:25:11;;;;;;;13.40;4.00;;;10.90;96.40;;;;;;5036262;28;20038;-75
2022/04/22 05:27:37;;;;;;;10.38;4.22;;;11.00;96.40;;;;;;5036372;28;20068;-75
2022/04/22 05:32:49;;;;;;;6.80;3.45;;;10.90;96.20;;;;;;5036444;28;20049;-75
2022/04/22 05:35:17;;;;;;;8.10;3.80;;;10.90;96.30;;;;;;5035892;28;20122;-75
2022/04/22 05:37:50;;;;;;;9.38;3.53;;;10.80;96.20;;;;;;5035811;28;20084;-75
2022/04/22 05:40:23;;;;;;;5.90;3.20;;;10.80;96.30;;;;;;5036103;28;20060;-75
2022/04/22 05:42:50;;;;;;;6.70;3.13;;;10.70;96.30;;;;;;5035692;28;20111;-75
2022/04/22 05:45:17;;;;;;;9.50;3.65;;;10.90;96.40;;;;;;5035804;28;20053;-76
2022/04/22 05:47:43;;;;;;;8.60;3.42;;;11.00;96.20;;;;;;5035995;28;20060;-75
2022/04/22 05:50:11;;;;;;;7.72;3.53;;;11.00;96.10;;;;;;5035545;28;20073;-75
2022/04/22 05:52:38;;;;;;;11.10;3.45;;;11.10;96.10;;;;;;5035921;28;20050;-75
2022/04/22 05:55:08;;;;;;;7.13;3.20;;;11.20;96.00;;;;;;5035806;28;20124;-75
2022/04/22 05:57:35;;;;;;;7.45;3.13;;;11.20;96.00;;;;;;5035705;28;20057;-76
2022/04/22 06:00:05;;;;;;;7.60;2.92;;;11.20;96.00;;;;;;5035694;28;20469;-75
2022/04/22 06:02:31;;;;;;;6.88;2.88;;;11.20;95.90;;;;;;5035606;28;20052;-75
2022/04/22 06:04:56;;;;;;;5.88;2.65;;;11.20;95.80;;;;;;5018857;28;20049;-75
2022/04/22 06:07:22;;;;;;;6.85;2.40;;;11.10;95.90;;;;;;5035668;28;20045;-75
2022/04/22 06:12:32;;;;;;;4.85;2.20;;;11.10;95.90;;;;;;5035551;28;20392;-75
2022/04/22 06:15:00;;;;;;;7.28;2.85;;;11.20;95.90;;;;;;5035801;28;20049;-76
2022/04/22 06:17:27;;;;;;;6.53;3.00;;;11.40;95.90;;;;;;5035026;28;20500;-76
2022/04/22 06:19:53;;;;;;;8.23;3.03;;;11.50;95.80;;;;;;5035036;28;20512;-75
2022/04/22 06:22:19;;;;;;;10.90;2.45;;;11.40;95.70;;;;;;5035328;28;20053;-75
2022/04/22 06:24:44;;;;;;;5.97;2.38;;;11.40;95.70;;;;;;5018556;28;20046;-76
2022/04/22 06:27:10;;;;;;;3.92;2.13;;;11.30;95.60;;;;;;5035209;28;20521;-76
2022/04/22 06:29:37;;;;;;;8.35;2.95;;;11.50;95.60;;;;;;5035026;28;20397;-75
2022/04/22 06:32:03;;;;;;;5.63;2.28;;;11.50;95.60;;;;;;5034503;28;20132;-76
2022/04/22 06:34:29;;;;;;;6.40;2.30;;;11.60;95.50;;;;;;5035486;28;20457;-76
2022/04/22 06:36:55;;;;;;;6.40;2.60;;;11.80;95.60;;;;;;5035024;28;20072;-75
2022/04/22 06:39:21;;;;;;;5.50;2.45;;;12.10;95.60;;;;;;5034994;28;20042;-75
2022/04/22 06:47:16;;;;;;;7.45;2.50;;;11.90;95.20;;;;;;5020948;28;20075;-75
2022/04/22 06:49:41;;;;;;;7.15;2.42;;;11.80;95.10;;;;;;5018324;28;20472;-76
2022/04/22 06:52:08;;;;;;;5.20;2.28;;;11.90;95.40;;;;;;5034361;28;20086;-75
2022/04/22 06:54:34;;;;;;;6.90;2.78;;;12.00;95.30;;;;;;5034582;28;20057;-75
2022/04/22 06:57:00;;;;;;;9.95;2.50;;;12.20;95.30;;;;;;5034715;28;20042;-75
2022/04/22 06:59:26;;;;;;;6.50;2.10;;;12.10;95.00;;;;;;5018474;28;20076;-75
2022/04/22 07:01:52;;;;;;;7.70;2.58;;;12.20;95.00;;;;;;5034624;28;20053;-75
2022/04/22 07:04:19;;;;;;;4.82;2.05;;;12.40;95.30;;;;;;5034258;28;20045;-75
2022/04/22 07:06:45;;;;;;;5.47;2.30;;;12.50;95.10;;;;;;5034479;28;20596;-75
2022/04/22 07:09:12;;;;;;;10.82;2.50;;;12.50;95.10;;;;;;5034816;28;20080;-77
2022/04/22 07:11:40;;;;;;;6.53;2.25;;;12.40;95.00;;;;;;5034362;28;20543;-74
2022/04/22 07:14:07;;;;;;;9.30;2.45;;;12.60;95.10;;;;;;5034522;28;20057;-71
2022/04/22 07:16:33;;;;;;;4.80;2.08;;;12.80;95.20;;;;;;5034004;28;20065;-71
2022/04/22 07:18:59;;;;;;;4.95;2.35;;;12.70;94.90;;;;;;5034348;28;20053;-72
2022/04/22 07:21:26;;;;;;;4.05;2.40;;;12.60;95.00;;;;;;5033903;28;20041;-70
2022/04/22 07:23:53;;;;;;;6.18;2.80;;;12.60;95.00;;;;;;5034577;28;20366;-70
2022/04/22 07:26:20;;;;;;;6.15;2.65;;;12.70;95.00;;;;;;5035016;28;20056;-70
2022/04/22 07:28:48;;;;;;;5.50;2.08;;;12.60;95.20;;;;;;5034102;28;20057;-70
2022/04/22 07:31:20;;;;;;;4.72;2.15;;;12.60;95.00;;;;;;5034053;28;20060;-70
2022/04/22 07:33:46;;;;;;;6.47;2.20;;;12.70;95.10;;;;;;5033887;28;20063;-73
2022/04/22 07:36:13;;;;;;;9.10;2.63;;;13.00;95.30;;;;;;5037011;28;20052;-72
2022/04/22 07:38:40;;;;;;;5.13;2.50;;;13.20;95.00;;;;;;5040565;28;20049;-73
2022/04/22 07:41:08;;;;;;;5.18;2.58;;;13.10;95.10;;;;;;5035567;28;20049;-70
2022/04/22 07:49:05;;;;;;;6.78;2.70;;;13.20;94.90;;;;;;5034257;28;20416;-72
2022/04/22 07:51:31;;;;;;;6.95;2.58;;;13.20;95.00;;;;;;5034258;28;20046;-72
2022/04/22 07:53:57;;;;;;;5.97;2.47;;;13.20;95.30;;;;;;5033648;28;20091;-72
2022/04/22 07:56:23;;;;;;;5.53;2.38;;;13.40;95.10;;;;;;5033524;28;20049;-73
2022/04/22 07:58:49;;;;;;;7.85;2.45;;;13.40;94.70;;;;;;5034553;28;20106;-72
2022/04/22 08:01:15;;;;;;;11.18;2.90;;;13.30;94.90;;;;;;5033385;28;20472;-73
2022/04/22 08:03:41;;;;;;;5.95;2.40;;;13.30;94.80;;;;;;5033253;28;20052;-72
2022/04/22 08:06:07;;;;;;;5.25;2.40;;;13.40;95.00;;;;;;5034639;28;20169;-73
2022/04/22 08:08:33;;;;;;;3.95;2.25;;;13.70;95.20;;;;;;5033561;28;20115;-72
2022/04/22 08:10:58;;;;;;;5.85;2.60;;;13.80;95.00;;;;;;5034344;28;20050;-73
2022/04/22 08:13:26;;;;;;;6.90;2.78;;;14.00;95.00;;;;;;5033196;28;20045;-73
2022/04/22 08:15:51;;;;;;;5.15;2.40;;;14.00;94.90;;;;;;5033184;28;20049;-73
2022/04/22 08:18:17;;;;;;;6.93;2.58;;;14.10;95.10;;;;;;5032712;28;20056;-73
2022/04/22 08:20:43;;;;;;;3.38;2.30;;;14.20;95.00;;;;;;5032692;28;20072;-73
2022/04/22 08:23:09;;;;;;;4.72;2.28;;;14.30;94.50;;;;;;5033114;28;20081;-72
2022/04/22 08:25:34;;;;;;;8.13;2.58;;;14.20;94.60;;;;;;5033899;28;20046;-92
2022/04/22 08:28:02;;;;;;;8.68;2.53;;;13.90;94.70;;;;;;5033502;28;20052;-73
2022/04/22 08:30:29;;;;;;;5.32;2.50;;;14.10;94.80;;;;;;5034162;28;20107;-73
2022/04/22 08:32:55;;;;;;;7.25;2.45;;;14.40;94.50;;;;;;5033956;28;20092;-87
2022/04/22 08:35:21;;;;;;;17.13;2.80;;;14.00;94.60;;;;;;5033114;28;20048;-86
2022/04/22 08:37:47;;;;;;;7.68;2.30;;;14.00;94.60;;;;;;5033054;28;20472;-74
2022/04/22 08:40:13;;;;;;;8.35;2.28;;;13.80;94.30;;;;;;5034041;28;20084;-74
2022/04/22 08:42:41;;;;;;;5.00;2.38;;;13.90;94.50;;;;;;5032800;28;20077;-87
2022/04/22 08:45:08;;;;;;;15.73;6.47;;;14.20;94.70;;;;;;5032493;28;20045;-86
2022/04/22 08:50:19;;;;;;;12.43;5.07;;;14.30;94.50;;;;;;5033506;28;20072;-86
2022/04/22 08:53:03;;;;;;;5.50;2.50;;;14.60;94.70;;;;;;5032497;28;20124;-86
2022/04/22 08:55:32;;;;;;;5.82;2.08;;;14.90;94.50;;;;;;5034004;28;20052;-75
2022/04/22 08:57:59;;;;;;;4.50;2.10;;;15.10;94.40;;;;;;5032434;28;20407;-72
2022/04/22 09:00:27;;;;;;;7.70;2.13;;;15.50;94.30;;;;;;5033554;28;20476;-73
2022/04/22 09:02:57;;;;;;;6.32;2.15;;;15.50;93.80;;;;;;5032519;28;20493;-73
2022/04/22 09:05:26;;;;;;;4.18;2.30;;;15.60;94.10;;;;;;5033479;28;20480;-70
2022/04/22 09:07:52;;;;;;;8.68;2.65;;;15.80;94.10;;;;;;5033617;28;20045;-74
2022/04/22 09:10:18;;;;;;;5.47;2.17;;;15.90;93.80;;;;;;5032504;28;20057;-74
2022/04/22 09:12:55;;;;;;;3.95;1.98;;;16.00;93.80;;;;;;5032538;28;20053;-75
2022/04/22 09:15:23;;;;;;;5.03;2.53;;;16.10;93.80;;;;;;5032661;28;20439;-75
2022/04/22 09:17:49;;;;;;;8.80;2.95;;;16.40;94.00;;;;;;5031823;28;20057;-83
2022/04/22 09:20:15;;;;;;;7.97;2.33;;;16.20;93.90;;;;;;5032144;28;20058;-85
2022/04/22 09:22:44;;;;;;;8.50;2.83;;;16.00;93.90;;;;;;5032525;28;20049;-85
2022/04/22 09:25:09;;;;;;;5.65;2.33;;;15.80;94.10;;;;;;5032251;28;20056;-84
2022/04/22 09:27:38;;;;;;;4.15;2.20;;;15.70;93.80;;;;;;5032358;28;20512;-83
2022/04/22 09:30:07;;;;;;;4.57;2.38;;;15.50;94.00;;;;;;5032111;28;20496;-85
2022/04/22 09:32:35;;;;;;;9.00;2.22;;;15.40;93.80;;;;;;5032351;28;20045;-80
2022/04/22 09:35:08;;;;;;;5.07;2.42;;;15.60;94.20;;;;;;5032438;28;20176;-82
2022/04/22 09:43:23;;;;;;;7.55;2.50;;;16.20;94.10;;;;;;5032422;28;20056;-73
2022/04/22 09:45:52;;;;;;;5.97;2.40;;;16.50;94.00;;;;;;5032629;28;20053;-73
2022/04/22 09:48:19;;;;;;;6.10;2.20;;;16.80;93.90;;;;;;5032168;28;20396;-74
2022/04/22 09:50:55;;;;;;;4.15;2.25;;;17.20;93.90;;;;;;5031368;28;20607;-74
2022/04/22 09:53:33;;;;;;;5.28;2.38;;;17.30;93.40;;;;;;5032111;28;20054;-74
2022/04/22 09:56:06;;;;;;;5.93;2.40;;;17.20;93.40;;;;;;5033185;28;20392;-73
2022/04/22 09:58:32;;;;;;;4.07;2.10;;;17.30;93.40;;;;;;5033186;28;20053;-74
2022/04/22 10:01:00;;;;;;;6.57;2.42;;;17.20;93.60;;;;;;5031962;28;20503;-74
2022/04/22 10:03:34;;;;;;;8.32;2.22;;;17.50;93.70;;;;;;5032974;28;20042;-74
2022/04/22 10:06:01;;;;;;;5.15;2.33;;;17.90;93.20;;;;;;5033232;28;20119;-75
2022/04/22 10:08:31;;;;;;;5.03;2.65;;;17.90;93.40;;;;;;5035678;28;20049;-73
2022/04/22 10:11:00;;;;;;;6.07;2.63;;;18.00;93.00;;;;;;5035516;28;20137;-73
2022/04/22 10:13:33;;;;;;;5.43;2.45;;;17.90;93.10;;;;;;5035541;28;20139;-75
2022/04/22 10:15:59;;;;;;;7.15;2.47;;;18.10;93.30;;;;;;5035193;28;20111;-75
2022/04/22 10:18:26;;;;;;;10.75;4.10;;;18.40;93.10;;;;;;5035335;28;20045;-74
2022/04/22 10:20:54;;;;;;;7.10;2.90;;;18.60;93.10;;;;;;5034959;28;20365;-75
2022/04/22 10:23:21;;;;;;;6.75;2.70;;;19.00;93.10;;;;;;5035534;28;20045;-74
2022/04/22 10:25:48;;;;;;;7.43;3.05;;;18.60;92.50;;;;;;5035201;28;20085;-82
2022/04/22 10:28:15;;;;;;;12.10;4.55;;;18.30;92.60;;;;;;5035277;28;20055;-82
2022/04/22 10:30:42;;;;;;;9.45;3.92;;;18.20;93.40;;;;;;5035351;28;20045;-79
2022/04/22 10:33:11;;;;;;;7.43;2.90;;;17.90;93.10;;;;;;5034954;28;20450;-75
2022/04/22 10:35:44;;;;;;;15.02;3.78;;;17.60;92.70;;;;;;5035132;28;20048;-79
2022/04/22 10:38:27;;;;;;;8.15;3.42;;;17.80;93.10;;;;;;5035242;28;20057;-75
2022/04/22 10:40:53;;;;;;;5.57;2.65;;;18.10;93.00;;;;;;5036028;28;20053;-75
2022/04/22 10:43:19;;;;;;;6.40;2.55;;;18.60;93.30;;;;;;5034852;28;20111;-74
2022/04/22 10:48:31;;;;;;;7.47;2.67;;;18.80;93.00;;;;;;5035320;28;20115;-79
2022/04/22 10:50:58;;;;;;;6.35;3.10;;;18.60;93.00;;;;;;5035656;28;20484;-77
2022/04/22 10:53:39;;;;;;;7.75;2.97;;;18.00;93.00;;;;;;5036363;28;20063;-81
2022/04/22 10:56:23;;;;;;;7.63;3.40;;;17.80;93.30;;;;;;5034852;28;20049;-76
2022/04/22 10:59:15;;;;;;;8.32;2.75;;;18.10;93.10;;;;;;5034639;28;20132;-73
2022/04/22 11:01:41;;;;;;;9.38;3.28;;;18.80;93.10;;;;;;5034495;28;20103;-75
2022/04/22 11:04:26;;;;;;;8.05;2.97;;;19.10;92.60;;;;;;5033916;28;20050;-76
2022/04/22 11:06:53;;;;;;;10.20;2.70;;;19.40;92.80;;;;;;5035020;28;20049;-76
2022/04/22 11:09:29;;;;;;;5.97;3.00;;;19.40;92.60;;;;;;5035431;28;20471;-77
2022/04/22 11:11:57;;;;;;;6.75;3.13;;;19.60;92.80;;;;;;5034311;28;20063;-76
2022/04/22 11:14:25;;;;;;;6.28;3.05;;;19.90;92.60;;;;;;5034389;28;20053;-78
2022/04/22 11:16:52;;;;;;;7.43;2.83;;;19.90;92.70;;;;;;5033868;28;20064;-77
2022/04/22 11:19:18;;;;;;;5.22;2.90;;;20.00;92.30;;;;;;5034256;28;20045;-79
2022/04/22 11:21:46;;;;;;;4.53;2.88;;;20.20;92.90;;;;;;5033939;28;20095;-78
2022/04/22 11:24:22;;;;;;;5.63;3.10;;;20.50;92.70;;;;;;5035098;28;20049;-78
2022/04/22 11:26:49;;;;;;;6.57;3.25;;;20.70;93.00;;;;;;5034262;28;20045;-79
2022/04/22 11:29:15;;;;;;;6.15;2.97;;;20.70;92.70;;;;;;5034026;28;20061;-79
2022/04/22 11:31:54;;;;;;;6.13;3.22;;;20.70;92.60;;;;;;5035484;28;20085;-79
2022/04/22 11:34:46;;;;;;;6.75;3.47;;;20.80;92.60;;;;;;5036439;28;20049;-77
2022/04/22 11:37:20;;;;;;;8.45;2.97;;;20.90;92.30;;;;;;5035307;28;20061;-79
2022/04/22 11:39:50;;;;;;;6.97;3.05;;;21.00;92.20;;;;;;5034201;28;20057;-78
2022/04/22 11:42:20;;;;;;;5.78;3.22;;;21.00;92.20;;;;;;5034883;28;20092;-78
2022/04/22 11:45:02;;;;;;;5.38;2.95;;;21.00;92.10;;;;;;5034391;28;20056;-78
2022/04/22 11:47:28;;;;;;;5.18;3.20;;;21.00;92.20;;;;;;5033780;28;20049;-80
2022/04/22 11:49:56;;;;;;;5.40;3.28;;;21.00;91.80;;;;;;5033835;28;20049;-79
2022/04/22 11:52:22;;;;;;;9.07;3.08;;;20.90;91.60;;;;;;5033296;28;20045;-76
2022/04/22 11:54:49;;;;;;;9.07;3.78;;;21.00;91.60;;;;;;5033312;28;20046;-76
2022/04/22 11:57:17;;;;;;;7.20;3.00;;;21.30;92.00;;;;;;5034541;28;20499;-77
2022/04/22 12:05:31;;;;;;;6.40;3.40;;;21.80;92.40;;;;;;5033075;28;20488;-78
2022/04/22 12:05:33;;;;;;;6.03;3.17;;;21.30;91.70;;;;;;5019410;28;20049;-79
2022/04/22 12:08:07;;;;;;;5.40;3.25;;;20.80;91.70;;;;;;5035444;28;20045;-77
2022/04/22 12:10:34;;;;;;;6.65;3.35;;;20.80;91.90;;;;;;5033372;28;20538;-80
2022/04/22 12:13:02;;;;;;;5.38;3.00;;;20.80;91.70;;;;;;5033294;28;20508;-80
2022/04/22 12:15:28;;;;;;;7.13;3.55;;;20.90;92.10;;;;;;5033258;28;20053;-81
2022/04/22 12:17:54;;;;;;;11.90;3.45;;;21.00;92.20;;;;;;5032725;28;20049;-78
2022/04/22 12:20:20;;;;;;;6.22;3.70;;;20.60;92.00;;;;;;5032677;28;20136;-84
2022/04/22 12:22:51;;;;;;;7.00;3.22;;;19.70;91.90;;;;;;5033124;28;20048;-80
2022/04/22 12:25:23;;;;;;;10.20;3.45;;;20.00;92.60;;;;;;5032842;28;20045;-80
2022/04/22 12:28:08;;;;;;;16.17;3.80;;;20.20;92.20;;;;;;5032354;28;20124;-79
2022/04/22 12:30:38;;;;;;;8.30;3.65;;;20.60;91.90;;;;;;5033060;28;20455;-85
2022/04/22 12:33:20;;;;;;;9.15;3.78;;;20.30;92.10;;;;;;5033148;28;20045;-84
2022/04/22 12:35:46;;;;;;;8.13;3.60;;;20.20;92.20;;;;;;5033301;28;20521;-88
2022/04/22 12:38:13;;;;;;;8.18;3.72;;;20.60;92.20;;;;;;5033183;28;20180;-88
2022/04/22 12:40:47;;;;;;;7.00;3.90;;;20.40;92.30;;;;;;5033676;28;20159;-88
2022/04/22 12:43:23;;;;;;;8.35;3.72;;;20.20;92.50;;;;;;5032975;28;20050;-88
2022/04/22 12:54:11;;;;;;;9.38;5.05;;;20.80;92.20;;;;;;5032906;28;20099;-86
2022/04/22 12:56:37;;;;;;;7.40;3.70;;;21.10;92.80;;;;;;5032731;28;20057;-85
2022/04/22 12:59:06;;;;;;;7.10;3.95;;;21.30;92.00;;;;;;5016104;28;20049;-86
2022/04/22 13:01:39;;;;;;;11.25;4.25;;;21.40;92.10;;;;;;5032933;28;20456;-85
2022/04/22 13:04:07;;;;;;;8.07;4.15;;;21.40;92.30;;;;;;5032740;28;20100;-76
2022/04/22 13:06:42;;;;;;;10.70;4.80;;;21.20;92.40;;;;;;5033603;28;20060;-75
2022/04/22 13:09:10;;;;;;;8.82;4.15;;;21.80;92.30;;;;;;5033471;28;20465;-75
2022/04/22 13:11:36;;;;;;;6.65;4.00;;;22.60;92.20;;;;;;5033525;28;20212;-76
2022/04/22 13:14:03;;;;;;;9.55;4.40;;;23.10;91.80;;;;;;5033453;28;20400;-81
2022/04/22 13:16:29;;;;;;;19.77;4.65;;;22.70;92.20;;;;;;5032241;28;20139;-81
2022/04/22 13:18:56;;;;;;;13.38;5.03;;;21.90;92.10;;;;;;5032313;28;20057;-86
2022/04/22 13:21:22;;;;;;;11.07;4.50;;;21.30;92.40;;;;;;5032211;28;20049;-84
2022/04/22 13:23:47;;;;;;;7.20;4.03;;;21.00;92.30;;;;;;5032346;28;20369;-84
2022/04/22 13:26:13;;;;;;;10.05;4.88;;;21.10;92.60;;;;;;5032358;28;20037;-83
2022/04/22 13:28:39;;;;;;;15.82;4.15;;;21.20;92.40;;;;;;5032284;28;20550;-85
2022/04/22 13:31:05;;;;;;;11.25;4.85;;;21.10;92.40;;;;;;5032899;28;20053;-84
2022/04/22 13:33:34;;;;;;;8.25;4.20;;;20.60;92.20;;;;;;5032574;28;20071;-85
2022/04/22 13:36:01;;;;;;;8.73;4.15;;;20.70;92.70;;;;;;5032296;28;20496;-85
2022/04/22 13:38:28;;;;;;;13.05;4.75;;;21.00;92.50;;;;;;5032409;28;20085;-87
2022/04/22 13:40:54;;;;;;;8.73;4.65;;;20.80;93.10;;;;;;5035357;28;20084;-81
2022/04/22 13:43:19;;;;;;;10.13;4.47;;;21.10;92.40;;;;;;5036168;28;20104;-74
2022/04/22 13:53:58;;;;;;;8.18;4.47;;;21.50;92.00;;;;;;5037071;28;20072;-75